sensor_id;sensor_type;location;lat;lon;timestamp;P1;durP1;ratioP1;P2;durP2;ratioP2
73823;SDS011;62154;54.914;73.444;2022-08-21T00:01:50;11.27;;;6.53;;
73823;SDS011;62154;54.914;73.444;2022-08-21T00:04:18;14.23;;;7.25;;
73823;SDS011;62154;54.914;73.444;2022-08-21T00:06:45;10.90;;;6.43;;
73823;SDS011;62154;54.914;73.444;2022-08-21T00:09:14;12.27;;;6.00;;
73823;SDS011;62154;54.914;73.444;2022-08-21T00:11:52;14.32;;;5.82;;
73823;SDS011;62154;54.914;73.444;2022-08-21T00:14:19;9.18;;;5.75;;
73823;SDS011;62154;54.914;73.444;2022-08-21T00:16:46;12.43;;;6.07;;
73823;SDS011;62154;54.914;73.444;2022-08-21T00:19:13;11.18;;;5.80;;
73823;SDS011;62154;54.914;73.444;2022-08-21T00:21:40;11.70;;;6.25;;
73823;SDS011;62154;54.914;73.444;2022-08-21T00:24:07;8.68;;;5.35;;
73823;SDS011;62154;54.914;73.444;2022-08-21T00:26:34;10.32;;;5.60;;
73823;SDS011;62154;54.914;73.444;2022-08-21T00:29:01;12.13;;;6.25;;
73823;SDS011;62154;54.914;73.444;2022-08-21T00:31:29;12.90;;;6.18;;
73823;SDS011;62154;54.914;73.444;2022-08-21T00:33:56;14.38;;;6.30;;
73823;SDS011;62154;54.914;73.444;2022-08-21T00:36:23;13.27;;;6.45;;
73823;SDS011;62154;54.914;73.444;2022-08-21T00:38:50;10.57;;;6.28;;
73823;SDS011;62154;54.914;73.444;2022-08-21T00:41:17;10.30;;;6.28;;
73823;SDS011;62154;54.914;73.444;2022-08-21T00:43:55;10.13;;;6.53;;
73823;SDS011;62154;54.914;73.444;2022-08-21T00:46:33;9.27;;;5.35;;
73823;SDS011;62154;54.914;73.444;2022-08-21T00:49:02;13.45;;;7.30;;
73823;SDS011;62154;54.914;73.444;2022-08-21T00:51:43;11.50;;;5.97;;
73823;SDS011;62154;54.914;73.444;2022-08-21T00:54:27;10.27;;;6.38;;
73823;SDS011;62154;54.914;73.444;2022-08-21T00:56:59;11.77;;;6.20;;
73823;SDS011;62154;54.914;73.444;2022-08-21T00:59:29;10.50;;;6.03;;
73823;SDS011;62154;54.914;73.444;2022-08-21T01:02:01;10.68;;;5.57;;
73823;SDS011;62154;54.914;73.444;2022-08-21T01:04:30;10.85;;;6.20;;
73823;SDS011;62154;54.914;73.444;2022-08-21T01:07:03;11.23;;;6.25;;
73823;SDS011;62154;54.914;73.444;2022-08-21T01:09:31;14.85;;;5.70;;
73823;SDS011;62154;54.914;73.444;2022-08-21T01:11:59;10.63;;;6.00;;
73823;SDS011;62154;54.914;73.444;2022-08-21T01:14:26;12.60;;;5.80;;
73823;SDS011;62154;54.914;73.444;2022-08-21T01:16:56;11.25;;;6.80;;
73823;SDS011;62154;54.914;73.444;2022-08-21T01:19:26;14.57;;;6.88;;
73823;SDS011;62154;54.914;73.444;2022-08-21T01:21:53;13.80;;;6.97;;
73823;SDS011;62154;54.914;73.444;2022-08-21T01:24:21;14.02;;;6.45;;
73823;SDS011;62154;54.914;73.444;2022-08-21T01:26:49;11.95;;;6.40;;
73823;SDS011;62154;54.914;73.444;2022-08-21T01:29:26;12.57;;;6.30;;
73823;SDS011;62154;54.914;73.444;2022-08-21T01:32:06;9.32;;;6.18;;
73823;SDS011;62154;54.914;73.444;2022-08-21T01:34:39;12.20;;;7.18;;
73823;SDS011;62154;54.914;73.444;2022-08-21T01:37:10;9.50;;;5.82;;
73823;SDS011;62154;54.914;73.444;2022-08-21T01:39:38;13.02;;;6.80;;
73823;SDS011;62154;54.914;73.444;2022-08-21T01:42:06;11.70;;;6.25;;
73823;SDS011;62154;54.914;73.444;2022-08-21T01:44:34;10.50;;;6.80;;
73823;SDS011;62154;54.914;73.444;2022-08-21T01:47:03;9.73;;;6.82;;
73823;SDS011;62154;54.914;73.444;2022-08-21T01:49:32;12.40;;;6.72;;
73823;SDS011;62154;54.914;73.444;2022-08-21T01:52:01;10.88;;;6.70;;
73823;SDS011;62154;54.914;73.444;2022-08-21T01:54:30;13.20;;;7.70;;
73823;SDS011;62154;54.914;73.444;2022-08-21T01:56:57;11.48;;;7.38;;
73823;SDS011;62154;54.914;73.444;2022-08-21T01:59:25;13.95;;;8.40;;
73823;SDS011;62154;54.914;73.444;2022-08-21T02:01:53;12.80;;;7.28;;
73823;SDS011;62154;54.914;73.444;2022-08-21T02:04:22;14.65;;;8.13;;
73823;SDS011;62154;54.914;73.444;2022-08-21T02:06:50;11.70;;;6.70;;
73823;SDS011;62154;54.914;73.444;2022-08-21T02:09:17;13.93;;;7.78;;
73823;SDS011;62154;54.914;73.444;2022-08-21T02:11:54;14.50;;;7.65;;
73823;SDS011;62154;54.914;73.444;2022-08-21T02:14:24;12.50;;;7.72;;
73823;SDS011;62154;54.914;73.444;2022-08-21T02:16:51;17.30;;;8.32;;
73823;SDS011;62154;54.914;73.444;2022-08-21T02:19:19;11.45;;;7.13;;
73823;SDS011;62154;54.914;73.444;2022-08-21T02:21:46;13.77;;;7.47;;
73823;SDS011;62154;54.914;73.444;2022-08-21T02:24:13;11.57;;;6.78;;
73823;SDS011;62154;54.914;73.444;2022-08-21T02:26:40;14.13;;;8.05;;
73823;SDS011;62154;54.914;73.444;2022-08-21T02:29:09;11.18;;;7.30;;
73823;SDS011;62154;54.914;73.444;2022-08-21T02:31:37;10.95;;;6.70;;
73823;SDS011;62154;54.914;73.444;2022-08-21T02:34:03;11.88;;;7.90;;
73823;SDS011;62154;54.914;73.444;2022-08-21T02:36:31;11.52;;;6.65;;
73823;SDS011;62154;54.914;73.444;2022-08-21T02:38:58;10.10;;;6.25;;
73823;SDS011;62154;54.914;73.444;2022-08-21T02:41:25;10.25;;;6.70;;
73823;SDS011;62154;54.914;73.444;2022-08-21T02:43:52;8.80;;;5.57;;
73823;SDS011;62154;54.914;73.444;2022-08-21T02:46:20;12.75;;;6.00;;
73823;SDS011;62154;54.914;73.444;2022-08-21T02:48:49;8.23;;;5.75;;
73823;SDS011;62154;54.914;73.444;2022-08-21T02:51:17;8.65;;;5.60;;
73823;SDS011;62154;54.914;73.444;2022-08-21T02:53:48;12.02;;;5.22;;
73823;SDS011;62154;54.914;73.444;2022-08-21T02:56:16;7.53;;;4.78;;
73823;SDS011;62154;54.914;73.444;2022-08-21T02:58:47;9.13;;;5.47;;
73823;SDS011;62154;54.914;73.444;2022-08-21T03:01:22;8.80;;;5.07;;
73823;SDS011;62154;54.914;73.444;2022-08-21T03:03:50;6.38;;;4.38;;
73823;SDS011;62154;54.914;73.444;2022-08-21T03:06:18;6.75;;;5.30;;
73823;SDS011;62154;54.914;73.444;2022-08-21T03:08:46;7.53;;;4.93;;
73823;SDS011;62154;54.914;73.444;2022-08-21T03:11:14;8.32;;;5.05;;
73823;SDS011;62154;54.914;73.444;2022-08-21T03:13:42;7.57;;;4.82;;
73823;SDS011;62154;54.914;73.444;2022-08-21T03:16:09;6.90;;;4.53;;
73823;SDS011;62154;54.914;73.444;2022-08-21T03:18:36;7.13;;;4.90;;
73823;SDS011;62154;54.914;73.444;2022-08-21T03:21:04;8.10;;;5.35;;
73823;SDS011;62154;54.914;73.444;2022-08-21T03:23:32;7.95;;;5.22;;
73823;SDS011;62154;54.914;73.444;2022-08-21T03:25:59;6.93;;;4.38;;
73823;SDS011;62154;54.914;73.444;2022-08-21T03:28:26;13.40;;;5.07;;
73823;SDS011;62154;54.914;73.444;2022-08-21T03:30:54;8.80;;;5.03;;
73823;SDS011;62154;54.914;73.444;2022-08-21T03:33:26;7.88;;;4.88;;
73823;SDS011;62154;54.914;73.444;2022-08-21T03:35:55;6.20;;;4.45;;
73823;SDS011;62154;54.914;73.444;2022-08-21T03:38:29;7.97;;;4.38;;
73823;SDS011;62154;54.914;73.444;2022-08-21T03:40:58;5.60;;;4.15;;
73823;SDS011;62154;54.914;73.444;2022-08-21T03:43:26;6.85;;;4.20;;
73823;SDS011;62154;54.914;73.444;2022-08-21T03:45:54;9.50;;;4.70;;
73823;SDS011;62154;54.914;73.444;2022-08-21T03:48:21;6.93;;;4.47;;
73823;SDS011;62154;54.914;73.444;2022-08-21T03:50:51;5.63;;;4.05;;
73823;SDS011;62154;54.914;73.444;2022-08-21T03:53:19;10.43;;;4.63;;
73823;SDS011;62154;54.914;73.444;2022-08-21T03:55:47;9.10;;;4.65;;
73823;SDS011;62154;54.914;73.444;2022-08-21T03:58:17;7.53;;;4.88;;
73823;SDS011;62154;54.914;73.444;2022-08-21T04:00:47;9.48;;;4.60;;
73823;SDS011;62154;54.914;73.444;2022-08-21T04:03:17;8.80;;;5.50;;
73823;SDS011;62154;54.914;73.444;2022-08-21T04:05:45;8.23;;;5.03;;
73823;SDS011;62154;54.914;73.444;2022-08-21T04:08:13;11.35;;;5.47;;
73823;SDS011;62154;54.914;73.444;2022-08-21T04:10:45;11.07;;;5.60;;
73823;SDS011;62154;54.914;73.444;2022-08-21T04:13:15;9.68;;;5.75;;
73823;SDS011;62154;54.914;73.444;2022-08-21T04:15:42;9.07;;;5.90;;
73823;SDS011;62154;54.914;73.444;2022-08-21T04:18:09;10.25;;;6.03;;
73823;SDS011;62154;54.914;73.444;2022-08-21T04:20:37;12.05;;;5.97;;
73823;SDS011;62154;54.914;73.444;2022-08-21T04:23:06;13.52;;;6.90;;
73823;SDS011;62154;54.914;73.444;2022-08-21T04:25:33;14.80;;;7.75;;
73823;SDS011;62154;54.914;73.444;2022-08-21T04:28:00;17.23;;;8.02;;
73823;SDS011;62154;54.914;73.444;2022-08-21T04:30:28;16.75;;;7.80;;
73823;SDS011;62154;54.914;73.444;2022-08-21T04:32:55;13.15;;;7.35;;
73823;SDS011;62154;54.914;73.444;2022-08-21T04:35:24;15.40;;;8.50;;
73823;SDS011;62154;54.914;73.444;2022-08-21T04:37:53;14.68;;;7.75;;
73823;SDS011;62154;54.914;73.444;2022-08-21T04:40:20;13.90;;;7.55;;
73823;SDS011;62154;54.914;73.444;2022-08-21T04:43:11;12.77;;;8.10;;
73823;SDS011;62154;54.914;73.444;2022-08-21T04:45:42;15.45;;;8.70;;
73823;SDS011;62154;54.914;73.444;2022-08-21T04:48:12;14.05;;;9.45;;
73823;SDS011;62154;54.914;73.444;2022-08-21T04:53:35;12.27;;;8.07;;
73823;SDS011;62154;54.914;73.444;2022-08-21T04:58:58;14.88;;;9.07;;
73823;SDS011;62154;54.914;73.444;2022-08-21T05:01:41;36.05;;;23.20;;
73823;SDS011;62154;54.914;73.444;2022-08-21T05:04:11;14.32;;;7.40;;
73823;SDS011;62154;54.914;73.444;2022-08-21T05:06:41;12.73;;;7.78;;
73823;SDS011;62154;54.914;73.444;2022-08-21T05:09:09;11.30;;;7.00;;
73823;SDS011;62154;54.914;73.444;2022-08-21T05:11:46;10.93;;;7.28;;
73823;SDS011;62154;54.914;73.444;2022-08-21T05:14:14;12.80;;;7.35;;
73823;SDS011;62154;54.914;73.444;2022-08-21T05:16:42;12.13;;;7.80;;
73823;SDS011;62154;54.914;73.444;2022-08-21T05:19:10;15.27;;;8.77;;
73823;SDS011;62154;54.914;73.444;2022-08-21T05:21:47;15.07;;;8.90;;
73823;SDS011;62154;54.914;73.444;2022-08-21T05:24:23;15.32;;;10.35;;
73823;SDS011;62154;54.914;73.444;2022-08-21T05:26:50;16.95;;;9.73;;
73823;SDS011;62154;54.914;73.444;2022-08-21T05:29:27;16.15;;;9.38;;
73823;SDS011;62154;54.914;73.444;2022-08-21T05:32:08;14.15;;;10.02;;
73823;SDS011;62154;54.914;73.444;2022-08-21T05:34:39;16.67;;;10.45;;
73823;SDS011;62154;54.914;73.444;2022-08-21T05:37:07;20.73;;;10.88;;
73823;SDS011;62154;54.914;73.444;2022-08-21T05:39:36;16.02;;;11.25;;
73823;SDS011;62154;54.914;73.444;2022-08-21T05:42:03;18.30;;;12.07;;
73823;SDS011;62154;54.914;73.444;2022-08-21T05:44:31;21.52;;;12.20;;
73823;SDS011;62154;54.914;73.444;2022-08-21T05:47:08;21.52;;;15.85;;
73823;SDS011;62154;54.914;73.444;2022-08-21T05:49:36;20.48;;;11.55;;
73823;SDS011;62154;54.914;73.444;2022-08-21T05:52:04;20.35;;;11.35;;
73823;SDS011;62154;54.914;73.444;2022-08-21T05:54:31;16.08;;;11.38;;
73823;SDS011;62154;54.914;73.444;2022-08-21T05:57:09;19.27;;;11.63;;
73823;SDS011;62154;54.914;73.444;2022-08-21T05:59:36;22.98;;;15.25;;
73823;SDS011;62154;54.914;73.444;2022-08-21T06:02:03;21.05;;;12.65;;
73823;SDS011;62154;54.914;73.444;2022-08-21T06:04:31;13.82;;;10.20;;
73823;SDS011;62154;54.914;73.444;2022-08-21T06:07:08;19.83;;;11.27;;
73823;SDS011;62154;54.914;73.444;2022-08-21T06:09:35;16.20;;;11.07;;
73823;SDS011;62154;54.914;73.444;2022-08-21T06:12:07;13.85;;;10.13;;
73823;SDS011;62154;54.914;73.444;2022-08-21T06:14:41;15.63;;;10.90;;
73823;SDS011;62154;54.914;73.444;2022-08-21T06:17:11;12.43;;;7.95;;
73823;SDS011;62154;54.914;73.444;2022-08-21T06:19:39;9.25;;;6.47;;
73823;SDS011;62154;54.914;73.444;2022-08-21T06:22:06;10.65;;;7.18;;
73823;SDS011;62154;54.914;73.444;2022-08-21T06:24:34;9.60;;;7.18;;
73823;SDS011;62154;54.914;73.444;2022-08-21T06:27:05;12.88;;;8.73;;
73823;SDS011;62154;54.914;73.444;2022-08-21T06:29:34;10.82;;;7.35;;
73823;SDS011;62154;54.914;73.444;2022-08-21T06:32:05;14.45;;;8.23;;
73823;SDS011;62154;54.914;73.444;2022-08-21T06:34:39;11.32;;;9.38;;
73823;SDS011;62154;54.914;73.444;2022-08-21T06:37:15;13.13;;;9.52;;
73823;SDS011;62154;54.914;73.444;2022-08-21T06:39:42;8.82;;;6.50;;
73823;SDS011;62154;54.914;73.444;2022-08-21T06:42:18;16.60;;;10.38;;
73823;SDS011;62154;54.914;73.444;2022-08-21T06:44:45;13.45;;;12.05;;
73823;SDS011;62154;54.914;73.444;2022-08-21T06:47:13;12.05;;;10.32;;
73823;SDS011;62154;54.914;73.444;2022-08-21T06:49:40;8.00;;;6.47;;
73823;SDS011;62154;54.914;73.444;2022-08-21T06:52:08;6.53;;;5.32;;
73823;SDS011;62154;54.914;73.444;2022-08-21T06:54:37;11.25;;;7.13;;
73823;SDS011;62154;54.914;73.444;2022-08-21T06:57:05;6.32;;;4.57;;
73823;SDS011;62154;54.914;73.444;2022-08-21T06:59:32;5.40;;;4.40;;
73823;SDS011;62154;54.914;73.444;2022-08-21T07:01:59;5.75;;;4.55;;
73823;SDS011;62154;54.914;73.444;2022-08-21T07:04:27;5.85;;;4.60;;
73823;SDS011;62154;54.914;73.444;2022-08-21T07:06:54;3.95;;;3.53;;
73823;SDS011;62154;54.914;73.444;2022-08-21T07:09:21;4.20;;;2.83;;
73823;SDS011;62154;54.914;73.444;2022-08-21T07:11:50;11.98;;;4.80;;
73823;SDS011;62154;54.914;73.444;2022-08-21T07:14:20;4.57;;;2.45;;
73823;SDS011;62154;54.914;73.444;2022-08-21T07:16:53;6.28;;;3.03;;
73823;SDS011;62154;54.914;73.444;2022-08-21T07:19:20;3.33;;;2.40;;
73823;SDS011;62154;54.914;73.444;2022-08-21T07:21:47;7.70;;;2.75;;
73823;SDS011;62154;54.914;73.444;2022-08-21T07:24:14;4.05;;;2.47;;
73823;SDS011;62154;54.914;73.444;2022-08-21T07:26:41;6.90;;;2.60;;
73823;SDS011;62154;54.914;73.444;2022-08-21T07:29:19;9.68;;;3.03;;
73823;SDS011;62154;54.914;73.444;2022-08-21T07:31:46;12.85;;;6.15;;
73823;SDS011;62154;54.914;73.444;2022-08-21T07:34:13;8.05;;;2.95;;
73823;SDS011;62154;54.914;73.444;2022-08-21T07:36:40;7.32;;;3.35;;
73823;SDS011;62154;54.914;73.444;2022-08-21T07:39:08;6.50;;;2.58;;
73823;SDS011;62154;54.914;73.444;2022-08-21T07:41:35;5.00;;;2.20;;
73823;SDS011;62154;54.914;73.444;2022-08-21T07:44:04;1.73;;;1.40;;
73823;SDS011;62154;54.914;73.444;2022-08-21T07:46:40;2.75;;;1.67;;
73823;SDS011;62154;54.914;73.444;2022-08-21T07:49:08;1.75;;;1.63;;
73823;SDS011;62154;54.914;73.444;2022-08-21T07:51:34;2.13;;;1.67;;
73823;SDS011;62154;54.914;73.444;2022-08-21T07:54:02;0.85;;;0.73;;
73823;SDS011;62154;54.914;73.444;2022-08-21T07:56:30;2.53;;;0.98;;
73823;SDS011;62154;54.914;73.444;2022-08-21T07:58:58;3.05;;;1.50;;
73823;SDS011;62154;54.914;73.444;2022-08-21T08:01:25;3.67;;;1.77;;
73823;SDS011;62154;54.914;73.444;2022-08-21T08:03:52;13.15;;;6.50;;
73823;SDS011;62154;54.914;73.444;2022-08-21T08:06:19;5.43;;;2.63;;
73823;SDS011;62154;54.914;73.444;2022-08-21T08:08:46;3.47;;;2.38;;
73823;SDS011;62154;54.914;73.444;2022-08-21T08:11:14;9.18;;;5.57;;
73823;SDS011;62154;54.914;73.444;2022-08-21T08:13:42;9.23;;;5.68;;
73823;SDS011;62154;54.914;73.444;2022-08-21T08:16:21;10.75;;;6.30;;
73823;SDS011;62154;54.914;73.444;2022-08-21T08:18:48;12.65;;;7.72;;
73823;SDS011;62154;54.914;73.444;2022-08-21T08:21:19;6.95;;;4.90;;
73823;SDS011;62154;54.914;73.444;2022-08-21T08:23:47;6.07;;;3.10;;
73823;SDS011;62154;54.914;73.444;2022-08-21T08:26:14;7.00;;;3.92;;
73823;SDS011;62154;54.914;73.444;2022-08-21T08:28:42;8.65;;;5.03;;
73823;SDS011;62154;54.914;73.444;2022-08-21T08:31:09;8.40;;;6.25;;
73823;SDS011;62154;54.914;73.444;2022-08-21T08:33:36;9.25;;;5.32;;
73823;SDS011;62154;54.914;73.444;2022-08-21T08:36:03;4.80;;;1.90;;
73823;SDS011;62154;54.914;73.444;2022-08-21T08:38:30;5.88;;;3.08;;
73823;SDS011;62154;54.914;73.444;2022-08-21T08:41:06;4.90;;;2.88;;
73823;SDS011;62154;54.914;73.444;2022-08-21T08:43:42;7.47;;;4.68;;
73823;SDS011;62154;54.914;73.444;2022-08-21T08:46:16;4.93;;;2.75;;
73823;SDS011;62154;54.914;73.444;2022-08-21T08:48:55;21.48;;;9.48;;
73823;SDS011;62154;54.914;73.444;2022-08-21T08:54:28;25.88;;;14.65;;
73823;SDS011;62154;54.914;73.444;2022-08-21T08:57:02;7.88;;;5.75;;
73823;SDS011;62154;54.914;73.444;2022-08-21T08:59:43;14.13;;;8.05;;
73823;SDS011;62154;54.914;73.444;2022-08-21T09:02:19;13.60;;;6.60;;
73823;SDS011;62154;54.914;73.444;2022-08-21T09:04:47;29.45;;;20.25;;
73823;SDS011;62154;54.914;73.444;2022-08-21T09:15:30;6.93;;;4.20;;
73823;SDS011;62154;54.914;73.444;2022-08-21T09:18:06;6.22;;;2.83;;
73823;SDS011;62154;54.914;73.444;2022-08-21T09:26:25;7.63;;;3.90;;
73823;SDS011;62154;54.914;73.444;2022-08-21T09:29:11;4.10;;;2.30;;
73823;SDS011;62154;54.914;73.444;2022-08-21T09:31:38;9.52;;;4.57;;
73823;SDS011;62154;54.914;73.444;2022-08-21T09:34:06;19.00;;;9.43;;
73823;SDS011;62154;54.914;73.444;2022-08-21T09:39:08;9.57;;;5.63;;
73823;SDS011;62154;54.914;73.444;2022-08-21T09:41:37;13.88;;;5.68;;
73823;SDS011;62154;54.914;73.444;2022-08-21T09:44:07;16.98;;;8.57;;
73823;SDS011;62154;54.914;73.444;2022-08-21T09:46:35;28.92;;;14.48;;
73823;SDS011;62154;54.914;73.444;2022-08-21T09:49:03;40.65;;;19.38;;
73823;SDS011;62154;54.914;73.444;2022-08-21T09:51:34;14.43;;;8.52;;
73823;SDS011;62154;54.914;73.444;2022-08-21T09:56:50;18.13;;;5.55;;
73823;SDS011;62154;54.914;73.444;2022-08-21T09:59:36;22.92;;;7.55;;
73823;SDS011;62154;54.914;73.444;2022-08-21T10:02:19;12.02;;;4.78;;
73823;SDS011;62154;54.914;73.444;2022-08-21T10:05:30;11.32;;;3.75;;
73823;SDS011;62154;54.914;73.444;2022-08-21T10:07:46;11.68;;;6.53;;
73823;SDS011;62154;54.914;73.444;2022-08-21T10:13:34;11.57;;;4.68;;
73823;SDS011;62154;54.914;73.444;2022-08-21T10:15:49;9.20;;;4.00;;
73823;SDS011;62154;54.914;73.444;2022-08-21T10:28:40;21.13;;;8.30;;
73823;SDS011;62154;54.914;73.444;2022-08-21T10:30:46;11.70;;;6.32;;
73823;SDS011;62154;54.914;73.444;2022-08-21T10:33:48;24.63;;;10.50;;
73823;SDS011;62154;54.914;73.444;2022-08-21T10:43:21;6.72;;;3.47;;
73823;SDS011;62154;54.914;73.444;2022-08-21T10:48:23;40.03;;;10.57;;
73823;SDS011;62154;54.914;73.444;2022-08-21T10:50:55;20.60;;;8.30;;
73823;SDS011;62154;54.914;73.444;2022-08-21T10:56:11;12.70;;;6.85;;
73823;SDS011;62154;54.914;73.444;2022-08-21T10:58:57;13.38;;;6.10;;
73823;SDS011;62154;54.914;73.444;2022-08-21T11:02:13;9.75;;;5.13;;
73823;SDS011;62154;54.914;73.444;2022-08-21T11:07:04;13.18;;;7.15;;
73823;SDS011;62154;54.914;73.444;2022-08-21T11:09:47;7.57;;;3.20;;
73823;SDS011;62154;54.914;73.444;2022-08-21T11:17:47;6.20;;;1.98;;
73823;SDS011;62154;54.914;73.444;2022-08-21T11:20:26;6.20;;;3.53;;
73823;SDS011;62154;54.914;73.444;2022-08-21T11:22:58;13.27;;;8.85;;
73823;SDS011;62154;54.914;73.444;2022-08-21T11:25:58;7.72;;;4.85;;
73823;SDS011;62154;54.914;73.444;2022-08-21T11:28:38;7.30;;;3.83;;
73823;SDS011;62154;54.914;73.444;2022-08-21T11:37:01;7.97;;;5.00;;
73823;SDS011;62154;54.914;73.444;2022-08-21T11:39:48;10.95;;;3.95;;
73823;SDS011;62154;54.914;73.444;2022-08-21T11:51:01;7.93;;;3.78;;
73823;SDS011;62154;54.914;73.444;2022-08-21T11:54:17;5.90;;;2.17;;
73823;SDS011;62154;54.914;73.444;2022-08-21T11:56:47;9.13;;;3.33;;
73823;SDS011;62154;54.914;73.444;2022-08-21T11:59:26;14.85;;;3.45;;
73823;SDS011;62154;54.914;73.444;2022-08-21T12:02:14;8.00;;;3.53;;
73823;SDS011;62154;54.914;73.444;2022-08-21T12:04:56;15.68;;;4.75;;
73823;SDS011;62154;54.914;73.444;2022-08-21T12:07:33;28.13;;;9.98;;
73823;SDS011;62154;54.914;73.444;2022-08-21T12:10:19;22.35;;;5.85;;
73823;SDS011;62154;54.914;73.444;2022-08-21T12:13:05;14.43;;;5.20;;
73823;SDS011;62154;54.914;73.444;2022-08-21T12:15:40;26.13;;;7.88;;
73823;SDS011;62154;54.914;73.444;2022-08-21T12:18:21;32.88;;;8.95;;
73823;SDS011;62154;54.914;73.444;2022-08-21T12:23:30;26.40;;;8.43;;
73823;SDS011;62154;54.914;73.444;2022-08-21T12:26:26;32.42;;;8.77;;
73823;SDS011;62154;54.914;73.444;2022-08-21T12:29:12;26.25;;;6.80;;
73823;SDS011;62154;54.914;73.444;2022-08-21T12:35:31;30.23;;;7.25;;
73823;SDS011;62154;54.914;73.444;2022-08-21T12:38:07;14.02;;;4.82;;
73823;SDS011;62154;54.914;73.444;2022-08-21T12:40:47;16.67;;;6.47;;
73823;SDS011;62154;54.914;73.444;2022-08-21T12:43:24;14.45;;;5.25;;
73823;SDS011;62154;54.914;73.444;2022-08-21T12:45:56;11.75;;;4.38;;
73823;SDS011;62154;54.914;73.444;2022-08-21T12:48:28;9.32;;;4.95;;
73823;SDS011;62154;54.914;73.444;2022-08-21T12:51:04;13.45;;;6.57;;
73823;SDS011;62154;54.914;73.444;2022-08-21T12:53:45;8.02;;;3.40;;
73823;SDS011;62154;54.914;73.444;2022-08-21T12:56:23;12.43;;;6.45;;
73823;SDS011;62154;54.914;73.444;2022-08-21T12:59:00;11.80;;;3.78;;
73823;SDS011;62154;54.914;73.444;2022-08-21T13:01:35;7.38;;;3.20;;
73823;SDS011;62154;54.914;73.444;2022-08-21T13:04:13;3.85;;;2.22;;
73823;SDS011;62154;54.914;73.444;2022-08-21T13:06:47;5.18;;;3.03;;
73823;SDS011;62154;54.914;73.444;2022-08-21T13:09:20;15.43;;;3.95;;
73823;SDS011;62154;54.914;73.444;2022-08-21T13:11:52;18.45;;;4.03;;
73823;SDS011;62154;54.914;73.444;2022-08-21T13:14:27;9.55;;;3.05;;
73823;SDS011;62154;54.914;73.444;2022-08-21T13:16:56;8.10;;;2.60;;
73823;SDS011;62154;54.914;73.444;2022-08-21T13:19:29;8.18;;;2.30;;
73823;SDS011;62154;54.914;73.444;2022-08-21T13:22:15;4.97;;;2.38;;
73823;SDS011;62154;54.914;73.444;2022-08-21T13:24:54;5.10;;;2.42;;
73823;SDS011;62154;54.914;73.444;2022-08-21T13:27:24;7.40;;;3.13;;
73823;SDS011;62154;54.914;73.444;2022-08-21T13:30:00;6.70;;;3.22;;
73823;SDS011;62154;54.914;73.444;2022-08-21T13:32:50;10.38;;;2.30;;
73823;SDS011;62154;54.914;73.444;2022-08-21T13:35:24;4.05;;;2.00;;
73823;SDS011;62154;54.914;73.444;2022-08-21T13:37:53;5.18;;;2.30;;
73823;SDS011;62154;54.914;73.444;2022-08-21T13:40:26;4.63;;;1.60;;
73823;SDS011;62154;54.914;73.444;2022-08-21T13:43:01;4.97;;;2.20;;
73823;SDS011;62154;54.914;73.444;2022-08-21T13:45:32;5.70;;;2.80;;
73823;SDS011;62154;54.914;73.444;2022-08-21T13:48:00;6.45;;;2.75;;
73823;SDS011;62154;54.914;73.444;2022-08-21T13:50:28;9.73;;;2.65;;
73823;SDS011;62154;54.914;73.444;2022-08-21T13:53:01;5.45;;;2.38;;
73823;SDS011;62154;54.914;73.444;2022-08-21T13:55:39;10.48;;;3.13;;
73823;SDS011;62154;54.914;73.444;2022-08-21T13:58:09;8.27;;;2.45;;
73823;SDS011;62154;54.914;73.444;2022-08-21T14:00:48;12.18;;;3.72;;
73823;SDS011;62154;54.914;73.444;2022-08-21T14:03:41;13.20;;;3.17;;
73823;SDS011;62154;54.914;73.444;2022-08-21T14:06:18;13.00;;;3.20;;
73823;SDS011;62154;54.914;73.444;2022-08-21T14:08:52;5.93;;;2.60;;
73823;SDS011;62154;54.914;73.444;2022-08-21T14:11:27;8.52;;;4.25;;
73823;SDS011;62154;54.914;73.444;2022-08-21T14:14:19;13.45;;;5.10;;
73823;SDS011;62154;54.914;73.444;2022-08-21T14:24:58;10.52;;;2.63;;
73823;SDS011;62154;54.914;73.444;2022-08-21T14:27:50;10.65;;;3.47;;
73823;SDS011;62154;54.914;73.444;2022-08-21T14:30:41;6.45;;;2.30;;
73823;SDS011;62154;54.914;73.444;2022-08-21T14:33:10;5.38;;;2.15;;
73823;SDS011;62154;54.914;73.444;2022-08-21T14:35:39;5.90;;;2.97;;
73823;SDS011;62154;54.914;73.444;2022-08-21T14:38:17;7.05;;;4.50;;
73823;SDS011;62154;54.914;73.444;2022-08-21T14:40:50;10.68;;;3.10;;
73823;SDS011;62154;54.914;73.444;2022-08-21T14:43:21;14.50;;;3.83;;
73823;SDS011;62154;54.914;73.444;2022-08-21T14:45:49;31.85;;;6.43;;
73823;SDS011;62154;54.914;73.444;2022-08-21T14:48:16;32.78;;;5.38;;
73823;SDS011;62154;54.914;73.444;2022-08-21T14:50:48;20.70;;;5.35;;
73823;SDS011;62154;54.914;73.444;2022-08-21T14:53:15;17.77;;;3.53;;
73823;SDS011;62154;54.914;73.444;2022-08-21T14:55:42;14.07;;;2.72;;
73823;SDS011;62154;54.914;73.444;2022-08-21T14:58:28;11.60;;;2.92;;
73823;SDS011;62154;54.914;73.444;2022-08-21T15:00:55;8.98;;;2.72;;
73823;SDS011;62154;54.914;73.444;2022-08-21T15:03:24;13.07;;;3.08;;
73823;SDS011;62154;54.914;73.444;2022-08-21T15:05:52;8.98;;;3.83;;
73823;SDS011;62154;54.914;73.444;2022-08-21T15:08:23;8.95;;;4.28;;
73823;SDS011;62154;54.914;73.444;2022-08-21T15:10:51;7.85;;;2.50;;
73823;SDS011;62154;54.914;73.444;2022-08-21T15:13:19;13.57;;;4.20;;
73823;SDS011;62154;54.914;73.444;2022-08-21T15:15:47;10.23;;;3.85;;
73823;SDS011;62154;54.914;73.444;2022-08-21T15:18:19;14.07;;;5.38;;
73823;SDS011;62154;54.914;73.444;2022-08-21T15:20:47;11.07;;;4.30;;
73823;SDS011;62154;54.914;73.444;2022-08-21T15:23:15;9.55;;;3.70;;
73823;SDS011;62154;54.914;73.444;2022-08-21T15:25:43;9.98;;;4.43;;
73823;SDS011;62154;54.914;73.444;2022-08-21T15:28:12;15.65;;;5.90;;
73823;SDS011;62154;54.914;73.444;2022-08-21T15:30:43;17.05;;;8.35;;
73823;SDS011;62154;54.914;73.444;2022-08-21T15:33:11;9.35;;;4.05;;
73823;SDS011;62154;54.914;73.444;2022-08-21T15:35:47;9.15;;;3.53;;
73823;SDS011;62154;54.914;73.444;2022-08-21T15:38:25;7.70;;;3.33;;
73823;SDS011;62154;54.914;73.444;2022-08-21T15:41:02;9.05;;;3.95;;
73823;SDS011;62154;54.914;73.444;2022-08-21T15:44:04;9.18;;;4.75;;
73823;SDS011;62154;54.914;73.444;2022-08-21T15:46:24;9.90;;;4.20;;
73823;SDS011;62154;54.914;73.444;2022-08-21T15:48:51;10.48;;;4.32;;
73823;SDS011;62154;54.914;73.444;2022-08-21T15:51:18;15.43;;;5.18;;
73823;SDS011;62154;54.914;73.444;2022-08-21T15:53:45;11.77;;;4.50;;
73823;SDS011;62154;54.914;73.444;2022-08-21T15:56:20;11.70;;;4.80;;
73823;SDS011;62154;54.914;73.444;2022-08-21T15:58:50;15.45;;;8.48;;
73823;SDS011;62154;54.914;73.444;2022-08-21T16:01:20;16.70;;;9.30;;
73823;SDS011;62154;54.914;73.444;2022-08-21T16:03:49;25.10;;;10.70;;
73823;SDS011;62154;54.914;73.444;2022-08-21T16:06:28;19.30;;;10.02;;
73823;SDS011;62154;54.914;73.444;2022-08-21T16:08:56;20.67;;;9.38;;
73823;SDS011;62154;54.914;73.444;2022-08-21T16:11:24;22.10;;;8.90;;
73823;SDS011;62154;54.914;73.444;2022-08-21T16:13:51;18.40;;;8.38;;
73823;SDS011;62154;54.914;73.444;2022-08-21T16:16:25;20.02;;;8.80;;
73823;SDS011;62154;54.914;73.444;2022-08-21T16:18:59;16.08;;;7.90;;
73823;SDS011;62154;54.914;73.444;2022-08-21T16:21:34;20.10;;;8.43;;
73823;SDS011;62154;54.914;73.444;2022-08-21T16:24:02;14.60;;;9.50;;